Time;durP1;ratioP1;P1;durP2;ratioP2;P2;SDS_P1;SDS_P2;PMS_P1;PMS_P2;Temp;Humidity;BMP_temperature;BMP_pressure;BME280_temperature;BME280_humidity;BME280_pressure;Samples;Min_cycle;Max_cycle;Signal;HPM_P1;HPM_P2
2021/10/06 00:00:21;;;;;;;0.95;0.90;;;;;;;;;;5023751;28;20184;-47
2021/10/06 00:02:47;;;;;;;1.20;1.10;;;;;;;;;;5032625;28;20567;-47
2021/10/06 00:05:13;;;;;;;1.10;1.00;;;;;;;;;;5024146;28;20173;-46
2021/10/06 00:07:39;;;;;;;0.90;0.90;;;;;;;;;;5034498;28;20570;-47
2021/10/06 00:10:06;;;;;;;0.80;0.80;;;;;;;;;;5022885;28;20216;-47
2021/10/06 00:12:32;;;;;;;0.80;0.80;;;;;;;;;;5027956;28;20183;-47
2021/10/06 00:14:58;;;;;;;0.80;0.80;;;;;;;;;;5030960;28;20184;-47
2021/10/06 00:17:24;;;;;;;1.20;1.10;;;;;;;;;;5016137;28;20187;-46
2021/10/06 00:19:52;;;;;;;1.13;1.02;;;;;;;;;;5015797;28;20259;-46
2021/10/06 00:22:18;;;;;;;1.08;0.82;;;;;;;;;;5025695;28;20180;-46
2021/10/06 00:24:44;;;;;;;0.90;0.90;;;;;;;;;;5035005;28;20190;-46
2021/10/06 00:27:10;;;;;;;1.00;0.90;;;;;;;;;;5025012;28;20187;-46
2021/10/06 00:29:36;;;;;;;0.75;0.70;;;;;;;;;;5021860;28;20298;-46
2021/10/06 00:32:02;;;;;;;1.85;0.70;;;;;;;;;;5033793;28;20643;-46
2021/10/06 00:34:28;;;;;;;1.10;0.90;;;;;;;;;;5025401;28;20179;-46
2021/10/06 00:36:54;;;;;;;0.60;0.60;;;;;;;;;;5022806;28;20199;-47
2021/10/06 00:39:20;;;;;;;0.80;0.77;;;;;;;;;;5034188;28;20444;-46
2021/10/06 00:41:46;;;;;;;1.15;1.05;;;;;;;;;;5015951;28;20485;-46
2021/10/06 00:44:16;;;;;;;0.80;0.80;;;;;;;;;;5015242;28;20328;-46
2021/10/06 00:46:42;;;;;;;0.75;0.75;;;;;;;;;;5015638;28;20181;-46
2021/10/06 00:49:08;;;;;;;0.80;0.80;;;;;;;;;;5017077;28;20458;-46
2021/10/06 00:51:34;;;;;;;0.95;0.90;;;;;;;;;;5033804;28;20187;-47
2021/10/06 00:54:01;;;;;;;1.30;0.70;;;;;;;;;;5033358;28;20203;-46
2021/10/06 00:56:27;;;;;;;0.95;0.82;;;;;;;;;;5021856;28;20184;-46
2021/10/06 00:58:53;;;;;;;2.13;0.95;;;;;;;;;;5019873;28;20513;-46
2021/10/06 01:01:19;;;;;;;0.80;0.80;;;;;;;;;;5021447;28;20299;-46
2021/10/06 01:03:45;;;;;;;2.15;0.82;;;;;;;;;;5022875;28;20279;-47
2021/10/06 01:06:11;;;;;;;1.27;0.90;;;;;;;;;;5034707;28;20564;-46
2021/10/06 01:08:37;;;;;;;0.63;0.63;;;;;;;;;;5034042;28;20290;-47
2021/10/06 01:11:03;;;;;;;1.77;0.88;;;;;;;;;;5032489;28;20222;-47
2021/10/06 01:13:29;;;;;;;0.70;0.70;;;;;;;;;;5027742;28;20230;-46
2021/10/06 01:15:56;;;;;;;0.60;0.60;;;;;;;;;;5023918;28;20182;-47
2021/10/06 01:18:22;;;;;;;1.17;0.80;;;;;;;;;;5034388;28;20242;-46
2021/10/06 01:20:48;;;;;;;0.70;0.70;;;;;;;;;;5033433;28;20562;-46
2021/10/06 01:23:15;;;;;;;1.55;0.90;;;;;;;;;;5028506;28;20180;-46
2021/10/06 01:25:41;;;;;;;1.23;0.70;;;;;;;;;;5022104;28;20259;-47
2021/10/06 01:28:07;;;;;;;0.98;0.70;;;;;;;;;;5033756;28;20458;-46
2021/10/06 01:30:33;;;;;;;0.60;0.60;;;;;;;;;;5033656;28;20183;-46
2021/10/06 01:32:59;;;;;;;0.95;0.80;;;;;;;;;;5024883;28;20191;-46
2021/10/06 01:35:25;;;;;;;0.85;0.75;;;;;;;;;;5027149;28;20187;-46
2021/10/06 01:37:51;;;;;;;0.70;0.70;;;;;;;;;;5021892;28;20214;-46
2021/10/06 01:40:19;;;;;;;0.70;0.70;;;;;;;;;;5018854;28;20192;-46
2021/10/06 01:42:46;;;;;;;1.27;0.70;;;;;;;;;;5015754;28;20185;-46
2021/10/06 01:45:19;;;;;;;0.70;0.68;;;;;;;;;;5018493;28;20172;-46
2021/10/06 01:47:45;;;;;;;0.90;0.63;;;;;;;;;;5034590;28;20440;-46
2021/10/06 01:50:12;;;;;;;0.60;0.60;;;;;;;;;;5032440;28;20226;-46
2021/10/06 01:52:38;;;;;;;0.57;0.57;;;;;;;;;;5014821;28;20161;-46
2021/10/06 01:55:04;;;;;;;0.73;0.50;;;;;;;;;;5020679;28;20178;-46
2021/10/06 01:57:30;;;;;;;1.75;0.98;;;;;;;;;;5034370;28;20263;-46
2021/10/06 01:59:56;;;;;;;1.00;0.57;;;;;;;;;;5031726;28;20386;-46
2021/10/06 02:02:22;;;;;;;1.48;0.70;;;;;;;;;;5033932;28;20223;-46
2021/10/06 02:04:48;;;;;;;1.45;0.55;;;;;;;;;;5024885;28;20231;-46
2021/10/06 02:07:14;;;;;;;1.02;0.70;;;;;;;;;;5033312;28;20180;-46
2021/10/06 02:09:40;;;;;;;0.60;0.60;;;;;;;;;;5022391;28;20204;-46
2021/10/06 02:12:06;;;;;;;0.52;0.50;;;;;;;;;;5015576;28;20203;-47
2021/10/06 02:14:32;;;;;;;1.10;0.60;;;;;;;;;;5020026;28;20239;-46
2021/10/06 02:16:58;;;;;;;0.80;0.70;;;;;;;;;;5032703;28;20182;-46
2021/10/06 02:19:24;;;;;;;1.10;0.75;;;;;;;;;;5031804;28;20183;-46
2021/10/06 02:21:50;;;;;;;1.27;0.68;;;;;;;;;;5027984;28;20212;-46
2021/10/06 02:24:16;;;;;;;0.40;0.40;;;;;;;;;;5028749;28;20180;-46
2021/10/06 02:26:42;;;;;;;1.88;0.50;;;;;;;;;;5032182;28;20192;-46
2021/10/06 02:29:08;;;;;;;0.90;0.55;;;;;;;;;;5032483;28;20200;-46
2021/10/06 02:31:34;;;;;;;1.52;0.68;;;;;;;;;;5034099;28;20670;-46
2021/10/06 02:34:00;;;;;;;1.33;0.70;;;;;;;;;;5033227;28;20501;-46
2021/10/06 02:36:26;;;;;;;0.95;0.68;;;;;;;;;;5027145;28;20171;-46
2021/10/06 02:38:52;;;;;;;2.35;0.80;;;;;;;;;;5016340;28;20190;-46
2021/10/06 02:41:18;;;;;;;0.95;0.60;;;;;;;;;;5033712;28;20176;-46
2021/10/06 02:43:44;;;;;;;2.30;0.50;;;;;;;;;;5033119;28;20446;-47
2021/10/06 02:46:10;;;;;;;1.90;0.70;;;;;;;;;;5023896;28;20176;-46
2021/10/06 02:48:36;;;;;;;1.67;0.63;;;;;;;;;;5031415;28;20215;-46
2021/10/06 02:51:02;;;;;;;1.75;0.50;;;;;;;;;;5035610;28;20176;-46
2021/10/06 02:53:28;;;;;;;1.63;0.70;;;;;;;;;;5022309;28;20270;-46
2021/10/06 02:55:54;;;;;;;1.75;0.80;;;;;;;;;;5022959;28;20187;-46
2021/10/06 02:58:20;;;;;;;1.10;0.80;;;;;;;;;;5017211;28;20177;-46
2021/10/06 03:00:46;;;;;;;1.05;0.60;;;;;;;;;;5017432;28;20204;-46
2021/10/06 03:03:12;;;;;;;1.25;0.57;;;;;;;;;;5021593;28;20478;-47
2021/10/06 03:05:38;;;;;;;1.35;0.60;;;;;;;;;;5030485;28;20180;-46
2021/10/06 03:08:04;;;;;;;0.77;0.50;;;;;;;;;;5032794;28;20180;-46
2021/10/06 03:10:30;;;;;;;1.77;0.65;;;;;;;;;;5018205;28;20242;-46
2021/10/06 03:12:56;;;;;;;1.88;0.60;;;;;;;;;;5017083;28;20429;-46
2021/10/06 03:15:22;;;;;;;1.10;0.50;;;;;;;;;;5023303;28;20177;-47
2021/10/06 03:17:48;;;;;;;1.75;0.55;;;;;;;;;;5034012;28;20169;-46
2021/10/06 03:20:14;;;;;;;0.60;0.50;;;;;;;;;;5027932;28;20515;-46
2021/10/06 03:22:41;;;;;;;2.25;0.70;;;;;;;;;;5035901;28;20179;-46
2021/10/06 03:25:07;;;;;;;0.90;0.50;;;;;;;;;;5016992;28;20192;-46
2021/10/06 03:27:33;;;;;;;2.38;0.50;;;;;;;;;;5016751;28;20567;-46
2021/10/06 03:29:59;;;;;;;1.02;0.63;;;;;;;;;;5018012;28;20487;-46
2021/10/06 03:32:25;;;;;;;2.08;0.75;;;;;;;;;;5030412;28;20190;-46
2021/10/06 03:34:51;;;;;;;1.27;0.50;;;;;;;;;;5028727;28;20195;-46
2021/10/06 03:37:17;;;;;;;2.67;0.90;;;;;;;;;;5017908;28;20560;-46
2021/10/06 03:39:43;;;;;;;3.33;0.80;;;;;;;;;;5017475;28;20828;-46
2021/10/06 03:42:10;;;;;;;2.47;0.90;;;;;;;;;;5016354;28;20176;-46
2021/10/06 03:44:36;;;;;;;1.00;0.60;;;;;;;;;;5029254;28;20184;-46
2021/10/06 03:47:02;;;;;;;1.75;0.80;;;;;;;;;;5025260;28;20617;-46
2021/10/06 03:49:28;;;;;;;1.83;0.90;;;;;;;;;;5019347;28;20228;-46
2021/10/06 03:51:54;;;;;;;1.30;0.60;;;;;;;;;;5016416;28;20210;-46
2021/10/06 03:54:20;;;;;;;1.02;0.60;;;;;;;;;;5028152;28;20546;-46
2021/10/06 03:56:46;;;;;;;2.28;0.65;;;;;;;;;;5016701;28;20169;-46
2021/10/06 03:59:12;;;;;;;2.38;0.90;;;;;;;;;;5016471;28;20311;-46
2021/10/06 04:01:38;;;;;;;9.68;2.03;;;;;;;;;;5017230;28;20342;-46
2021/10/06 04:04:04;;;;;;;12.07;1.77;;;;;;;;;;5018331;28;20230;-47
2021/10/06 04:09:34;;;;;;;6.97;1.65;;;;;;;;;;5018484;28;20524;-47
2021/10/06 04:12:00;;;;;;;5.70;1.45;;;;;;;;;;5018373;28;20220;-46
2021/10/06 04:14:27;;;;;;;6.10;1.33;;;;;;;;;;5018329;28;20219;-47
2021/10/06 04:16:53;;;;;;;8.80;1.95;;;;;;;;;;5018302;28;20627;-47
2021/10/06 04:19:19;;;;;;;4.80;1.13;;;;;;;;;;5018322;28;20203;-47
2021/10/06 04:21:45;;;;;;;6.10;1.05;;;;;;;;;;5018224;28;20525;-47
2021/10/06 04:24:11;;;;;;;5.63;1.20;;;;;;;;;;5017918;28;20169;-47
2021/10/06 04:26:37;;;;;;;2.72;1.02;;;;;;;;;;5018008;28;20169;-47
2021/10/06 04:29:03;;;;;;;3.20;0.90;;;;;;;;;;5018034;28;20228;-47
2021/10/06 04:31:29;;;;;;;4.88;1.65;;;;;;;;;;5018092;28;20169;-47
2021/10/06 04:33:55;;;;;;;3.60;0.95;;;;;;;;;;5017761;28;20567;-47
2021/10/06 04:36:21;;;;;;;2.30;0.90;;;;;;;;;;5017961;28;20173;-47
2021/10/06 04:38:47;;;;;;;3.78;1.00;;;;;;;;;;5017969;28;20172;-47
2021/10/06 04:41:13;;;;;;;5.22;1.17;;;;;;;;;;5017944;28;20582;-47
2021/10/06 04:43:39;;;;;;;4.88;1.20;;;;;;;;;;5017595;28;20173;-47
2021/10/06 04:46:05;;;;;;;1.90;0.90;;;;;;;;;;5017854;28;20168;-47
2021/10/06 04:48:32;;;;;;;4.00;0.95;;;;;;;;;;5017710;28;20258;-46
2021/10/06 04:50:57;;;;;;;4.07;1.05;;;;;;;;;;5017671;28;20525;-47
2021/10/06 04:53:23;;;;;;;4.40;1.00;;;;;;;;;;5017416;28;20215;-46
2021/10/06 04:55:49;;;;;;;3.10;0.98;;;;;;;;;;5017595;28;20559;-46
2021/10/06 04:58:15;;;;;;;2.25;0.80;;;;;;;;;;5017658;28;20172;-47
2021/10/06 05:00:41;;;;;;;2.00;0.88;;;;;;;;;;5017037;28;20195;-46
2021/10/06 05:03:07;;;;;;;2.60;0.90;;;;;;;;;;5026481;28;20497;-47
2021/10/06 05:05:33;;;;;;;1.98;0.80;;;;;;;;;;5027661;28;20172;-47
2021/10/06 05:08:00;;;;;;;1.65;0.70;;;;;;;;;;5031115;28;20196;-47
2021/10/06 05:10:25;;;;;;;2.53;0.90;;;;;;;;;;5015700;28;20208;-47
2021/10/06 05:12:51;;;;;;;1.52;0.77;;;;;;;;;;5030495;28;20194;-46
2021/10/06 05:15:17;;;;;;;2.20;0.90;;;;;;;;;;5028362;28;20557;-46
2021/10/06 05:17:43;;;;;;;3.40;0.80;;;;;;;;;;5014851;28;20173;-46
2021/10/06 05:20:10;;;;;;;3.67;1.25;;;;;;;;;;5015155;28;20574;-46
2021/10/06 05:22:36;;;;;;;1.77;0.75;;;;;;;;;;5021764;28;20195;-47
2021/10/06 05:25:03;;;;;;;1.92;0.77;;;;;;;;;;5023840;28;20184;-46
2021/10/06 05:27:30;;;;;;;2.45;0.82;;;;;;;;;;5033658;28;20183;-46
2021/10/06 05:29:56;;;;;;;3.28;0.93;;;;;;;;;;5022475;28;20276;-47
2021/10/06 05:32:22;;;;;;;2.03;0.90;;;;;;;;;;5029684;28;20334;-47
2021/10/06 05:34:48;;;;;;;1.95;0.50;;;;;;;;;;5031961;28;20267;-46
2021/10/06 05:37:15;;;;;;;1.10;0.68;;;;;;;;;;5034599;28;20172;-46
2021/10/06 05:39:41;;;;;;;1.65;0.80;;;;;;;;;;5031682;28;20180;-46
2021/10/06 05:42:07;;;;;;;3.00;0.95;;;;;;;;;;5029713;28;20172;-46
2021/10/06 05:44:33;;;;;;;3.33;0.88;;;;;;;;;;5024933;28;20179;-46
2021/10/06 05:46:59;;;;;;;1.83;0.80;;;;;;;;;;5033848;28;20343;-46
2021/10/06 05:49:25;;;;;;;1.05;0.73;;;;;;;;;;5032229;28;20325;-46
2021/10/06 05:51:51;;;;;;;2.13;0.93;;;;;;;;;;5032750;28;20176;-46
2021/10/06 05:54:18;;;;;;;1.38;0.63;;;;;;;;;;5020578;28;20177;-46
2021/10/06 05:56:44;;;;;;;3.65;0.80;;;;;;;;;;5039868;28;20175;-46
2021/10/06 05:59:10;;;;;;;2.67;0.73;;;;;;;;;;5033478;28;20176;-46
2021/10/06 06:01:36;;;;;;;0.93;0.50;;;;;;;;;;5014319;28;20207;-46
2021/10/06 06:04:02;;;;;;;1.92;1.45;;;;;;;;;;5025567;28;20199;-46
2021/10/06 06:06:28;;;;;;;1.42;0.60;;;;;;;;;;5032904;28;20313;-46
2021/10/06 06:08:54;;;;;;;1.52;0.60;;;;;;;;;;5017932;28;20295;-47
2021/10/06 06:11:22;;;;;;;2.42;0.75;;;;;;;;;;5034223;28;20172;-46
2021/10/06 06:13:48;;;;;;;1.52;0.70;;;;;;;;;;5023894;28;20196;-46
2021/10/06 06:16:15;;;;;;;4.15;0.95;;;;;;;;;;5028818;28;20485;-46
2021/10/06 06:18:41;;;;;;;1.77;0.77;;;;;;;;;;5026828;28;20266;-46
2021/10/06 06:21:07;;;;;;;3.72;0.73;;;;;;;;;;5035118;28;20190;-46
2021/10/06 06:23:34;;;;;;;4.88;1.10;;;;;;;;;;5033444;28;20207;-46
2021/10/06 06:26:00;;;;;;;5.18;1.17;;;;;;;;;;5018379;28;20195;-46
2021/10/06 06:28:26;;;;;;;2.20;1.23;;;;;;;;;;5030231;28;20192;-46
2021/10/06 06:30:52;;;;;;;1.88;0.73;;;;;;;;;;5017910;28;20263;-46
2021/10/06 06:33:19;;;;;;;1.65;1.00;;;;;;;;;;5017533;28;20176;-46
2021/10/06 06:35:45;;;;;;;2.78;0.98;;;;;;;;;;5030567;28;20176;-46
2021/10/06 06:38:11;;;;;;;1.92;0.70;;;;;;;;;;5036345;28;20187;-47
2021/10/06 06:40:41;;;;;;;2.10;0.63;;;;;;;;;;5032690;28;20176;-46
2021/10/06 06:43:10;;;;;;;1.67;0.68;;;;;;;;;;5020786;28;20247;-46
2021/10/06 06:45:36;;;;;;;1.65;0.70;;;;;;;;;;5036578;28;20245;-46
2021/10/06 06:48:03;;;;;;;1.92;0.73;;;;;;;;;;5037688;28;20199;-46
2021/10/06 06:50:29;;;;;;;2.03;0.80;;;;;;;;;;5025249;28;20603;-46
2021/10/06 06:52:55;;;;;;;2.85;0.82;;;;;;;;;;5035032;28;20195;-46
2021/10/06 06:55:21;;;;;;;4.53;0.80;;;;;;;;;;5025723;28;20211;-46
2021/10/06 06:57:47;;;;;;;0.80;0.70;;;;;;;;;;5017355;28;20177;-46
2021/10/06 07:00:13;;;;;;;2.90;0.80;;;;;;;;;;5022393;28;20223;-46
2021/10/06 07:02:39;;;;;;;4.20;0.80;;;;;;;;;;5029571;28;20483;-46
2021/10/06 07:05:06;;;;;;;3.25;0.88;;;;;;;;;;5021678;28;20184;-46
2021/10/06 07:07:32;;;;;;;1.15;0.80;;;;;;;;;;5017308;28;20181;-46
2021/10/06 07:09:58;;;;;;;1.77;0.80;;;;;;;;;;5028374;28;20199;-46
2021/10/06 07:12:24;;;;;;;3.03;0.90;;;;;;;;;;5018919;28;20197;-46
2021/10/06 07:14:50;;;;;;;3.55;1.50;;;;;;;;;;5023037;28;20184;-46
2021/10/06 07:17:18;;;;;;;1.67;1.15;;;;;;;;;;5033825;28;20172;-46
2021/10/06 07:19:46;;;;;;;3.67;1.20;;;;;;;;;;5034812;28;20179;-46
2021/10/06 07:22:12;;;;;;;4.80;1.20;;;;;;;;;;5036296;28;20187;-46
2021/10/06 07:24:38;;;;;;;2.70;1.00;;;;;;;;;;5027330;28;20299;-46
2021/10/06 07:27:04;;;;;;;2.72;1.15;;;;;;;;;;5016688;28;20169;-46
2021/10/06 07:29:30;;;;;;;2.25;1.10;;;;;;;;;;5025867;28;20192;-46
2021/10/06 07:31:56;;;;;;;5.20;2.55;;;;;;;;;;5028292;28;20188;-46
2021/10/06 07:34:22;;;;;;;3.92;1.17;;;;;;;;;;5023206;28;20412;-46
2021/10/06 07:36:48;;;;;;;3.03;0.93;;;;;;;;;;5036582;28;20247;-46
2021/10/06 07:39:14;;;;;;;4.53;1.05;;;;;;;;;;5026370;28;20226;-46
2021/10/06 07:41:40;;;;;;;2.88;1.13;;;;;;;;;;5025499;28;20187;-46
2021/10/06 07:44:06;;;;;;;2.20;1.25;;;;;;;;;;5016070;28;20188;-46
2021/10/06 07:46:32;;;;;;;1.60;1.00;;;;;;;;;;5016422;28;20503;-46
2021/10/06 07:48:58;;;;;;;1.83;1.00;;;;;;;;;;5016568;28;20243;-46
2021/10/06 07:51:24;;;;;;;1.85;1.20;;;;;;;;;;5016619;28;20168;-46
2021/10/06 07:53:50;;;;;;;3.60;1.20;;;;;;;;;;5017996;28;20256;-46
2021/10/06 07:56:18;;;;;;;1.27;0.85;;;;;;;;;;5016124;28;20475;-46
2021/10/06 07:58:44;;;;;;;2.33;1.00;;;;;;;;;;5016344;28;20176;-46
2021/10/06 08:01:10;;;;;;;2.80;1.33;;;;;;;;;;5029087;28;20219;-46
2021/10/06 08:03:37;;;;;;;3.20;1.10;;;;;;;;;;5031290;28;20191;-46
2021/10/06 08:06:03;;;;;;;2.42;1.20;;;;;;;;;;5035830;28;20206;-46
2021/10/06 08:08:29;;;;;;;1.88;0.93;;;;;;;;;;5036006;28;20498;-46
2021/10/06 08:10:56;;;;;;;4.22;1.00;;;;;;;;;;5034994;28;20176;-46
2021/10/06 08:13:22;;;;;;;1.35;1.00;;;;;;;;;;5035492;28;20222;-46
2021/10/06 08:15:48;;;;;;;0.98;0.90;;;;;;;;;;5035655;28;20237;-46
2021/10/06 08:18:16;;;;;;;2.78;0.95;;;;;;;;;;5035935;28;20173;-46
2021/10/06 08:20:43;;;;;;;1.95;1.40;;;;;;;;;;5026902;28;20173;-46
2021/10/06 08:23:09;;;;;;;1.58;0.98;;;;;;;;;;5015402;28;20530;-46
2021/10/06 08:25:35;;;;;;;1.55;0.70;;;;;;;;;;5015120;28;20177;-47
2021/10/06 08:28:01;;;;;;;3.20;0.82;;;;;;;;;;5015860;28;20218;-46
2021/10/06 08:30:29;;;;;;;2.28;0.95;;;;;;;;;;5021899;28;20199;-46
2021/10/06 08:32:55;;;;;;;2.72;1.02;;;;;;;;;;5028895;28;20821;-46
2021/10/06 08:35:21;;;;;;;1.20;1.08;;;;;;;;;;5028499;28;20183;-46
2021/10/06 08:37:47;;;;;;;2.88;1.02;;;;;;;;;;5029755;28;20261;-47
2021/10/06 08:40:13;;;;;;;1.60;1.00;;;;;;;;;;5034272;28;20180;-47
2021/10/06 08:42:43;;;;;;;1.45;1.00;;;;;;;;;;5035124;28;20172;-46
2021/10/06 08:45:09;;;;;;;2.08;0.93;;;;;;;;;;5021957;28;20203;-46
2021/10/06 08:47:39;;;;;;;0.93;0.80;;;;;;;;;;5015583;28;20185;-46
2021/10/06 08:50:06;;;;;;;1.52;0.88;;;;;;;;;;5026360;28;20550;-46
2021/10/06 08:52:32;;;;;;;1.50;0.95;;;;;;;;;;5033850;28;20176;-46
2021/10/06 08:54:58;;;;;;;1.05;0.70;;;;;;;;;;5021214;28;20581;-46
2021/10/06 08:57:24;;;;;;;0.82;0.82;;;;;;;;;;5021837;28;20176;-46
2021/10/06 08:59:50;;;;;;;1.40;0.80;;;;;;;;;;5034208;28;20938;-46
2021/10/06 09:02:16;;;;;;;1.10;0.80;;;;;;;;;;5015668;28;20248;-46
2021/10/06 09:04:43;;;;;;;1.58;0.90;;;;;;;;;;5031169;28;20234;-46
2021/10/06 09:07:09;;;;;;;1.42;0.90;;;;;;;;;;5033974;28;20186;-46
2021/10/06 09:09:36;;;;;;;1.10;0.80;;;;;;;;;;5026465;28;20203;-46
2021/10/06 09:12:03;;;;;;;0.93;0.60;;;;;;;;;;5033316;28;20176;-46
2021/10/06 09:14:31;;;;;;;1.25;0.60;;;;;;;;;;5034208;28;20234;-46
2021/10/06 09:17:04;;;;;;;0.80;0.80;;;;;;;;;;5034689;28;20175;-46
2021/10/06 09:19:43;;;;;;;0.60;0.60;;;;;;;;;;5023959;28;20460;-46
2021/10/06 09:22:31;;;;;;;1.52;0.80;;;;;;;;;;5015238;28;20195;-46
2021/10/06 09:24:57;;;;;;;3.42;1.00;;;;;;;;;;5025043;28;20402;-46
2021/10/06 09:27:28;;;;;;;0.93;0.70;;;;;;;;;;5031809;28;20255;-46
2021/10/06 09:29:55;;;;;;;0.70;0.70;;;;;;;;;;5024105;28;20219;-46
2021/10/06 09:32:27;;;;;;;0.88;0.60;;;;;;;;;;5021019;28;20176;-46
2021/10/06 09:35:00;;;;;;;1.35;0.70;;;;;;;;;;5014944;28;20267;-46
2021/10/06 09:37:27;;;;;;;0.70;0.70;;;;;;;;;;5015075;28;20183;-46
2021/10/06 09:39:54;;;;;;;1.30;0.63;;;;;;;;;;5015009;28;20491;-46
2021/10/06 09:42:20;;;;;;;1.30;0.95;;;;;;;;;;5021856;28;20176;-46
2021/10/06 09:44:53;;;;;;;1.75;0.95;;;;;;;;;;5023175;28;20191;-46
2021/10/06 09:47:19;;;;;;;1.15;0.80;;;;;;;;;;5014741;28;20200;-47
2021/10/06 09:49:45;;;;;;;1.60;0.80;;;;;;;;;;5029231;28;20552;-46
2021/10/06 09:52:23;;;;;;;1.35;0.80;;;;;;;;;;5033779;28;20207;-46
2021/10/06 09:54:54;;;;;;;5.22;1.00;;;;;;;;;;5023897;28;20181;-46
2021/10/06 09:57:33;;;;;;;4.68;1.13;;;;;;;;;;5018999;28;20176;-46
2021/10/06 10:00:05;;;;;;;1.55;0.95;;;;;;;;;;5018749;28;20579;-46
2021/10/06 10:02:31;;;;;;;5.63;1.00;;;;;;;;;;5026005;28;20615;-46
2021/10/06 10:04:58;;;;;;;5.68;1.20;;;;;;;;;;5036457;28;20194;-46
2021/10/06 10:07:24;;;;;;;4.22;1.30;;;;;;;;;;5036073;28;20191;-46
2021/10/06 10:09:51;;;;;;;5.53;1.25;;;;;;;;;;5037894;28;20458;-46
2021/10/06 10:12:18;;;;;;;5.28;1.10;;;;;;;;;;5024185;28;20184;-46
2021/10/06 10:14:44;;;;;;;2.30;0.85;;;;;;;;;;5033580;28;20253;-46
2021/10/06 10:17:10;;;;;;;5.50;1.55;;;;;;;;;;5037834;28;20168;-46
2021/10/06 10:19:36;;;;;;;5.80;1.15;;;;;;;;;;5028108;28;20240;-46
2021/10/06 10:22:04;;;;;;;9.63;1.70;;;;;;;;;;5029805;28;20243;-47
2021/10/06 10:24:30;;;;;;;4.75;1.33;;;;;;;;;;5019928;28;20185;-46
2021/10/06 10:26:57;;;;;;;7.43;1.30;;;;;;;;;;5027770;28;20186;-45
2021/10/06 10:30:03;;;;;;;4.80;1.25;;;;;;;;;;5036989;28;20264;-46
2021/10/06 10:32:40;;;;;;;2.78;1.20;;;;;;;;;;5006234;28;20177;-46
2021/10/06 10:35:07;;;;;;;3.03;1.27;;;;;;;;;;5017560;28;20192;-46
2021/10/06 10:37:59;;;;;;;5.63;1.33;;;;;;;;;;5019099;28;20181;-46
2021/10/06 10:40:34;;;;;;;3.78;1.17;;;;;;;;;;5024181;28;20567;-46
2021/10/06 10:43:06;;;;;;;4.45;1.10;;;;;;;;;;5023090;28;20207;-46
2021/10/06 10:45:38;;;;;;;4.57;1.80;;;;;;;;;;5017566;28;20180;-46
2021/10/06 10:48:14;;;;;;;8.30;1.25;;;;;;;;;;5017888;28;20540;-46
2021/10/06 10:51:01;;;;;;;3.53;1.00;;;;;;;;;;5025860;28;20504;-46
2021/10/06 10:53:45;;;;;;;4.85;1.35;;;;;;;;;;5036741;28;20263;-46
2021/10/06 10:56:11;;;;;;;2.05;1.08;;;;;;;;;;5036669;28;20180;-46
2021/10/06 10:58:40;;;;;;;6.65;1.40;;;;;;;;;;5031440;28;20168;-46
2021/10/06 11:01:08;;;;;;;6.70;1.20;;;;;;;;;;5036549;28;20291;-46
2021/10/06 11:03:54;;;;;;;4.60;1.42;;;;;;;;;;5036338;28;20571;-46
2021/10/06 11:06:40;;;;;;;5.07;1.48;;;;;;;;;;5036906;28;20195;-46
2021/10/06 11:09:26;;;;;;;3.60;1.30;;;;;;;;;;5029995;28;20241;-46
2021/10/06 11:11:52;;;;;;;5.57;1.50;;;;;;;;;;5036388;28;20208;-46
2021/10/06 11:14:21;;;;;;;4.70;1.40;;;;;;;;;;5030688;28;20465;-46
2021/10/06 11:17:06;;;;;;;6.70;1.30;;;;;;;;;;5017417;28;20567;-46
2021/10/06 11:19:39;;;;;;;6.55;1.45;;;;;;;;;;5017187;28;20460;-46
2021/10/06 11:22:25;;;;;;;3.58;1.20;;;;;;;;;;5017683;28;20203;-46
2021/10/06 11:25:02;;;;;;;3.88;1.25;;;;;;;;;;5012947;28;20208;-46
2021/10/06 11:27:28;;;;;;;3.47;1.27;;;;;;;;;;5018324;28;20380;-46
2021/10/06 11:29:58;;;;;;;3.00;1.27;;;;;;;;;;5016202;28;20204;-46
2021/10/06 11:32:24;;;;;;;3.88;1.15;;;;;;;;;;5030608;28;20283;-46
2021/10/06 11:34:52;;;;;;;3.33;1.30;;;;;;;;;;5022143;28;20180;-46
2021/10/06 11:37:19;;;;;;;3.42;1.50;;;;;;;;;;5036568;28;20241;-46
2021/10/06 11:39:45;;;;;;;2.78;1.25;;;;;;;;;;5027278;28;20192;-46
2021/10/06 11:42:12;;;;;;;3.22;1.20;;;;;;;;;;5017097;28;20259;-46
2021/10/06 11:44:39;;;;;;;2.85;1.30;;;;;;;;;;5016723;28;20398;-46
2021/10/06 11:47:06;;;;;;;4.05;1.38;;;;;;;;;;5024028;28;20564;-46
2021/10/06 11:49:34;;;;;;;1.80;1.08;;;;;;;;;;5015523;28;20212;-46
2021/10/06 11:52:00;;;;;;;1.90;1.30;;;;;;;;;;5016986;28;20248;-46
2021/10/06 11:54:26;;;;;;;3.58;1.50;;;;;;;;;;5016619;28;20268;-46
2021/10/06 11:56:54;;;;;;;3.28;1.02;;;;;;;;;;5016250;28;20607;-46
2021/10/06 11:59:21;;;;;;;3.08;1.40;;;;;;;;;;5035224;28;20168;-46
2021/10/06 12:01:56;;;;;;;4.95;1.50;;;;;;;;;;5028505;28;20248;-46
2021/10/06 12:04:43;;;;;;;3.05;1.33;;;;;;;;;;5034256;28;20188;-46
2021/10/06 12:07:10;;;;;;;3.05;1.10;;;;;;;;;;5034150;28;20184;-46
2021/10/06 12:09:37;;;;;;;4.65;1.42;;;;;;;;;;5027317;28;20211;-46
2021/10/06 12:12:14;;;;;;;3.85;1.20;;;;;;;;;;5016675;28;20172;-46
2021/10/06 12:14:50;;;;;;;3.08;1.08;;;;;;;;;;5016793;28;20173;-46
2021/10/06 12:17:16;;;;;;;2.40;1.40;;;;;;;;;;5015825;28;20578;-46
2021/10/06 12:19:52;;;;;;;2.63;1.30;;;;;;;;;;5017150;28;20184;-46
2021/10/06 12:22:18;;;;;;;2.75;1.27;;;;;;;;;;5016454;28;20215;-46
2021/10/06 12:24:45;;;;;;;2.38;1.40;;;;;;;;;;5022419;28;20232;-46
2021/10/06 12:27:27;;;;;;;3.65;1.05;;;;;;;;;;5031453;28;20191;-46
2021/10/06 12:30:13;;;;;;;2.15;1.10;;;;;;;;;;5033702;28;20606;-46
2021/10/06 12:32:41;;;;;;;2.13;1.17;;;;;;;;;;5034158;28;20211;-46
2021/10/06 12:35:12;;;;;;;8.25;3.95;;;;;;;;;;5034014;28;20427;-46
2021/10/06 12:37:49;;;;;;;146.65;45.65;;;;;;;;;;5017328;28;20202;-46
2021/10/06 12:40:34;;;;;;;211.25;60.92;;;;;;;;;;5015807;28;20184;-46
2021/10/06 12:43:01;;;;;;;233.35;71.82;;;;;;;;;;5015870;28;20567;-46
2021/10/06 12:45:31;;;;;;;259.10;77.13;;;;;;;;;;5016135;28;20548;-46
2021/10/06 12:47:57;;;;;;;274.30;81.78;;;;;;;;;;5023428;28;20171;-46
2021/10/06 12:50:23;;;;;;;228.43;76.20;;;;;;;;;;5034488;28;20221;-46
2021/10/06 12:52:49;;;;;;;244.55;75.47;;;;;;;;;;5018558;28;20226;-46
2021/10/06 12:55:15;;;;;;;266.40;76.78;;;;;;;;;;5016885;28;20185;-48
2021/10/06 12:57:42;;;;;;;273.55;82.35;;;;;;;;;;5016658;28;20496;-46
2021/10/06 13:00:18;;;;;;;339.48;95.82;;;;;;;;;;5021438;28;20485;-46
2021/10/06 13:02:44;;;;;;;489.63;157.82;;;;;;;;;;5016561;28;20200;-46
2021/10/06 13:05:10;;;;;;;523.75;167.75;;;;;;;;;;5028003;28;20270;-46
2021/10/06 13:07:36;;;;;;;548.33;177.32;;;;;;;;;;5034839;28;20252;-46
2021/10/06 13:10:03;;;;;;;573.83;200.80;;;;;;;;;;5022925;28;20469;-46
2021/10/06 13:12:28;;;;;;;564.47;195.50;;;;;;;;;;5024601;28;20206;-46
2021/10/06 13:14:54;;;;;;;536.45;188.98;;;;;;;;;;5031182;28;20495;-46
2021/10/06 13:17:21;;;;;;;514.67;177.85;;;;;;;;;;5034432;28;20182;-46
2021/10/06 13:19:47;;;;;;;498.13;176.30;;;;;;;;;;5028472;28;20200;-46
2021/10/06 13:22:13;;;;;;;488.08;163.13;;;;;;;;;;5034315;28;20178;-46
2021/10/06 13:24:39;;;;;;;476.27;166.27;;;;;;;;;;5025467;28;20207;-46
2021/10/06 13:27:05;;;;;;;456.85;155.55;;;;;;;;;;5028389;28;20180;-46
2021/10/06 13:29:31;;;;;;;436.60;158.50;;;;;;;;;;5025822;28;20242;-46
2021/10/06 13:31:57;;;;;;;438.23;149.82;;;;;;;;;;5021273;28;20574;-46
2021/10/06 13:34:24;;;;;;;418.77;147.32;;;;;;;;;;5032377;28;20186;-46
2021/10/06 13:36:51;;;;;;;427.75;145.80;;;;;;;;;;5033166;28;20251;-46
2021/10/06 13:39:17;;;;;;;429.52;146.63;;;;;;;;;;5030231;28;20276;-46
2021/10/06 13:41:43;;;;;;;404.10;140.27;;;;;;;;;;5014614;28;20172;-46
2021/10/06 13:44:09;;;;;;;405.80;140.00;;;;;;;;;;5014922;28;20226;-46
2021/10/06 13:46:35;;;;;;;389.58;130.57;;;;;;;;;;5017819;28;20187;-46
2021/10/06 13:49:02;;;;;;;384.92;128.68;;;;;;;;;;5026722;28;20212;-46
2021/10/06 13:51:28;;;;;;;370.85;126.10;;;;;;;;;;5020719;28;20582;-46
2021/10/06 13:53:55;;;;;;;365.65;124.57;;;;;;;;;;5027564;28;20203;-46
2021/10/06 13:56:21;;;;;;;341.45;116.82;;;;;;;;;;5019572;28;20169;-46
2021/10/06 13:58:47;;;;;;;343.55;117.05;;;;;;;;;;5022083;28;20583;-46
2021/10/06 14:01:14;;;;;;;332.55;115.20;;;;;;;;;;5028840;28;20196;-46
2021/10/06 14:03:40;;;;;;;326.15;111.57;;;;;;;;;;5027570;28;20190;-46
2021/10/06 14:06:06;;;;;;;305.00;106.53;;;;;;;;;;5019901;28;20180;-46
2021/10/06 14:08:33;;;;;;;298.98;104.85;;;;;;;;;;5014500;28;20188;-46
2021/10/06 14:10:59;;;;;;;267.08;97.20;;;;;;;;;;5020444;28;20210;-46
2021/10/06 14:13:25;;;;;;;283.45;94.97;;;;;;;;;;5031434;28;20180;-46
2021/10/06 14:15:53;;;;;;;270.67;93.80;;;;;;;;;;5032304;28;20579;-46
2021/10/06 14:18:20;;;;;;;240.85;84.57;;;;;;;;;;5033190;28;20551;-46
2021/10/06 14:20:46;;;;;;;243.20;83.85;;;;;;;;;;5032908;28;20184;-46
2021/10/06 14:23:12;;;;;;;238.23;83.68;;;;;;;;;;5023193;28;20187;-46
2021/10/06 14:25:38;;;;;;;216.30;77.72;;;;;;;;;;5014328;28;20658;-46
2021/10/06 14:28:04;;;;;;;219.00;76.93;;;;;;;;;;5024209;28;20249;-46
2021/10/06 14:30:30;;;;;;;201.65;72.93;;;;;;;;;;5016460;28;20512;-46
2021/10/06 14:32:56;;;;;;;209.70;72.25;;;;;;;;;;5013769;28;20745;-46
2021/10/06 14:35:22;;;;;;;196.15;70.32;;;;;;;;;;5027641;28;20172;-46
2021/10/06 14:37:48;;;;;;;190.80;66.68;;;;;;;;;;5033526;28;20188;-46
2021/10/06 14:40:15;;;;;;;191.13;64.28;;;;;;;;;;5033075;28;20172;-46